Terminal Aerodrome Forecast
Issued by NWS Twin Cities, MN

Home | Current Version | Previous Version | Text Only | Print | Product List | Glossary Off
Versions: 1 2 3 4 5 6 7 8 9 10 11 12 13

000
FTUS43 KMPX 132300
TAFEAU
TAF
KEAU 132321Z 1400/1424 17006KT P6SM FEW060
     FM140500 18005KT P6SM BKN060
     FM141400 22009KT P6SM BKN060
     FM141900 26010KT P6SM FEW070 BKN150=

USA.gov is the U.S. government's official web portal to all federal, state and local government web resources and services.